createdAt,value
2022-11-18T00:01:21.606Z,12.55
2022-11-18T00:03:49.978Z,14.45
2022-11-18T00:06:19.486Z,13.38
2022-11-18T00:08:47.238Z,14.25
2022-11-18T00:11:38.224Z,13.57
2022-11-18T00:14:24.864Z,14.20
2022-11-18T00:17:06.852Z,14.23
2022-11-18T00:19:37.114Z,15.57
2022-11-18T00:22:05.962Z,13.85
2022-11-18T00:24:33.514Z,15.23
2022-11-18T00:27:00.890Z,14.68
2022-11-18T00:29:28.568Z,15.82
2022-11-18T00:31:56.931Z,15.80
2022-11-18T00:34:25.291Z,15.65
2022-11-18T00:36:52.403Z,16.13
2022-11-18T00:39:20.772Z,16.45
2022-11-18T00:42:07.748Z,16.23
2022-11-18T00:44:35.480Z,16.15
2022-11-18T00:47:03.219Z,17.52
2022-11-18T00:49:30.672Z,18.23
2022-11-18T00:51:58.198Z,17.30
2022-11-18T00:54:25.638Z,16.90
2022-11-18T00:56:52.944Z,19.10
2022-11-18T00:59:20.764Z,18.55
2022-11-18T01:01:49.369Z,20.58
2022-11-18T01:04:17.013Z,20.63
2022-11-18T01:06:44.630Z,20.52
2022-11-18T01:09:11.903Z,20.45
2022-11-18T01:11:57.661Z,20.20
2022-11-18T01:14:25.992Z,21.75
2022-11-18T01:16:56.979Z,22.55
2022-11-18T01:19:25.322Z,22.30
2022-11-18T01:21:52.889Z,23.33
2022-11-18T01:24:20.014Z,24.40
2022-11-18T01:26:47.444Z,24.48
2022-11-18T01:29:15.242Z,22.25
2022-11-18T01:32:02.014Z,23.25
2022-11-18T01:34:30.062Z,24.20
2022-11-18T01:36:58.753Z,24.75
2022-11-18T01:39:26.316Z,24.20
2022-11-18T01:41:53.534Z,23.88
2022-11-18T01:44:59.748Z,25.10
2022-11-18T01:47:34.972Z,24.48
2022-11-18T01:50:05.313Z,25.48
2022-11-18T01:52:37.247Z,24.45
2022-11-18T01:55:27.109Z,23.42
2022-11-18T01:58:00.496Z,24.75
2022-11-18T02:00:27.750Z,24.05
2022-11-18T02:02:55.562Z,23.85
2022-11-18T02:05:23.911Z,24.20
2022-11-18T02:07:51.742Z,23.20
2022-11-18T02:10:23.457Z,26.40
2022-11-18T02:12:52.570Z,22.90
2022-11-18T02:15:44.496Z,24.40
2022-11-18T02:18:30.948Z,23.33
2022-11-18T02:21:42.437Z,25.17
2022-11-18T02:24:37.567Z,23.90
2022-11-18T02:27:23.442Z,24.33
2022-11-18T02:30:10.725Z,24.55
2022-11-18T02:32:40.644Z,24.30
2022-11-18T02:35:42.470Z,24.05
2022-11-18T02:38:14.652Z,24.15
2022-11-18T02:40:48.633Z,23.58
2022-11-18T02:43:23.028Z,24.70
2022-11-18T02:45:54.064Z,24.67
2022-11-18T02:48:24.710Z,24.58
2022-11-18T02:50:52.843Z,25.70
2022-11-18T02:53:21.987Z,25.75
2022-11-18T02:55:51.314Z,25.83
2022-11-18T02:58:20.777Z,23.70
2022-11-18T03:01:00.018Z,25.50
2022-11-18T03:03:34.288Z,25.02
2022-11-18T03:06:06.667Z,27.85
2022-11-18T03:09:09.730Z,25.73
2022-11-18T03:12:15.098Z,26.50
2022-11-18T03:14:53.753Z,25.90
2022-11-18T03:17:45.678Z,27.52
2022-11-18T03:20:25.537Z,26.60
2022-11-18T03:23:06.574Z,27.73
2022-11-18T03:25:45.409Z,26.10
2022-11-18T03:28:16.163Z,26.20
2022-11-18T03:30:53.312Z,27.25
2022-11-18T03:33:25.124Z,26.77
2022-11-18T03:35:53.915Z,26.77
2022-11-18T03:38:29.544Z,27.50
2022-11-18T03:41:01.365Z,26.17
2022-11-18T03:43:34.566Z,25.50
2022-11-18T03:46:17.009Z,25.52
2022-11-18T03:48:51.241Z,26.75
2022-11-18T03:51:26.173Z,26.77
2022-11-18T03:54:16.249Z,25.90
2022-11-18T03:56:52.001Z,27.75
2022-11-18T03:59:24.182Z,25.98
2022-11-18T04:01:59.968Z,27.17
2022-11-18T04:04:28.614Z,25.98
2022-11-18T04:07:10.119Z,25.77
2022-11-18T04:09:48.121Z,26.55
2022-11-18T04:12:20.201Z,26.85
2022-11-18T04:14:50.014Z,25.50
2022-11-18T04:17:21.238Z,25.20
2022-11-18T04:19:48.427Z,26.63
2022-11-18T04:22:15.905Z,28.10
2022-11-18T04:24:44.194Z,27.27
2022-11-18T04:27:25.001Z,26.60
2022-11-18T04:29:52.517Z,25.75
2022-11-18T04:32:19.581Z,25.77
2022-11-18T04:34:46.854Z,25.48
2022-11-18T04:37:13.955Z,24.55
2022-11-18T04:39:41.584Z,26.30
2022-11-18T04:42:08.621Z,25.58
2022-11-18T04:44:35.847Z,24.80
2022-11-18T04:47:05.598Z,26.55
2022-11-18T04:49:34.365Z,24.27
2022-11-18T04:52:02.274Z,23.55
2022-11-18T04:54:29.664Z,24.92
2022-11-18T04:56:56.841Z,25.58
2022-11-18T04:59:26.831Z,24.70
2022-11-18T05:01:55.554Z,23.88
2022-11-18T05:04:30.363Z,22.40
2022-11-18T05:06:58.328Z,24.27
2022-11-18T05:09:31.495Z,24.40
2022-11-18T05:12:17.965Z,23.08
2022-11-18T05:14:50.149Z,25.23
2022-11-18T05:19:45.974Z,24.83
2022-11-18T05:22:15.147Z,25.17
2022-11-18T05:24:42.712Z,23.25
2022-11-18T05:27:09.798Z,24.05
2022-11-18T05:29:37.001Z,23.10
2022-11-18T05:32:04.380Z,24.60
2022-11-18T05:34:31.524Z,23.63
2022-11-18T05:36:59.118Z,23.23
2022-11-18T05:39:26.550Z,24.20
2022-11-18T05:42:15.559Z,24.13
2022-11-18T05:44:42.884Z,23.98
2022-11-18T05:47:10.864Z,22.35
2022-11-18T05:49:38.151Z,23.35
2022-11-18T05:52:05.456Z,23.50
2022-11-18T05:54:33.286Z,23.63
2022-11-18T05:57:03.141Z,23.10
2022-11-18T05:59:31.022Z,23.38
2022-11-18T06:02:10.998Z,23.20
2022-11-18T06:04:49.043Z,22.27
2022-11-18T06:07:22.859Z,22.52
2022-11-18T06:09:54.613Z,21.88
2022-11-18T06:12:27.970Z,21.83
2022-11-18T06:15:02.357Z,22.13
2022-11-18T06:17:54.900Z,21.15
2022-11-18T06:20:22.719Z,21.33
2022-11-18T06:22:53.926Z,21.20
2022-11-18T06:25:22.283Z,23.15
2022-11-18T06:27:51.835Z,20.75
2022-11-18T06:30:19.411Z,22.55
2022-11-18T06:32:47.072Z,20.35
2022-11-18T06:35:14.875Z,21.85
2022-11-18T06:37:42.584Z,20.70
2022-11-18T06:40:10.577Z,21.55
2022-11-18T06:42:56.511Z,21.30
2022-11-18T06:45:23.743Z,21.23
2022-11-18T06:47:51.205Z,21.55
2022-11-18T06:50:18.500Z,21.65
2022-11-18T06:52:45.610Z,21.60
2022-11-18T06:55:13.034Z,20.95
2022-11-18T06:57:40.686Z,21.77
2022-11-18T07:00:08.472Z,21.02
2022-11-18T07:02:39.232Z,20.67
2022-11-18T07:05:07.010Z,21.30
2022-11-18T07:07:41.785Z,20.08
2022-11-18T07:10:10.706Z,21.55
2022-11-18T07:12:37.888Z,20.20
2022-11-18T07:15:05.621Z,22.08
2022-11-18T07:17:33.136Z,21.67
2022-11-18T07:20:00.313Z,21.85
2022-11-18T07:22:27.679Z,22.60
2022-11-18T07:24:54.835Z,20.77
2022-11-18T07:27:22.072Z,22.10
2022-11-18T07:29:49.297Z,21.48
2022-11-18T07:32:16.784Z,22.48
2022-11-18T07:34:45.541Z,21.27
2022-11-18T07:37:12.996Z,22.17
2022-11-18T07:39:40.128Z,19.73
2022-11-18T07:42:09.762Z,21.92
2022-11-18T07:44:37.003Z,21.38
2022-11-18T07:47:04.568Z,22.13
2022-11-18T07:49:33.265Z,22.80
2022-11-18T07:52:00.447Z,22.63
2022-11-18T07:54:27.721Z,21.25
2022-11-18T07:56:55.252Z,22.75
2022-11-18T07:59:22.771Z,23.70
2022-11-18T08:01:50.142Z,21.23
2022-11-18T08:04:18.097Z,20.95
2022-11-18T08:06:45.828Z,21.75
2022-11-18T08:09:13.426Z,21.63
2022-11-18T08:11:41.057Z,22.58
2022-11-18T08:14:08.529Z,22.30
2022-11-18T08:16:36.011Z,20.98
2022-11-18T08:19:03.296Z,22.88
2022-11-18T08:21:30.791Z,22.05
2022-11-18T08:23:58.785Z,21.98
2022-11-18T08:26:27.366Z,22.67
2022-11-18T08:28:55.083Z,21.60
2022-11-18T08:31:25.493Z,22.02
2022-11-18T08:34:04.571Z,21.88
2022-11-18T08:36:35.691Z,20.88
2022-11-18T08:39:05.593Z,22.15
2022-11-18T08:41:43.661Z,20.88
2022-11-18T08:44:14.029Z,20.48
2022-11-18T08:46:45.839Z,22.30
2022-11-18T08:49:13.378Z,21.90
2022-11-18T08:51:40.963Z,22.63
2022-11-18T08:54:08.380Z,23.90
2022-11-18T08:56:35.501Z,23.38
2022-11-18T08:59:02.904Z,22.17
2022-11-18T09:01:30.542Z,20.92
2022-11-18T09:03:58.042Z,22.33
2022-11-18T09:06:28.546Z,21.38
2022-11-18T09:08:55.862Z,23.15
2022-11-18T09:11:26.170Z,20.52
2022-11-18T09:17:34.593Z,19.10
2022-11-18T09:20:44.961Z,20.02
2022-11-18T09:23:30.803Z,18.60
2022-11-18T09:26:20.093Z,19.27
2022-11-18T09:29:14.833Z,19.35
2022-11-18T09:32:35.697Z,17.80
2022-11-18T09:35:30.417Z,17.90
2022-11-18T09:38:22.223Z,18.27
2022-11-18T09:41:59.986Z,19.00
2022-11-18T09:45:10.045Z,17.33
2022-11-18T09:48:00.985Z,17.95
2022-11-18T09:50:49.083Z,16.42
2022-11-18T09:53:25.288Z,16.52
2022-11-18T09:55:53.983Z,16.55
2022-11-18T09:58:35.191Z,16.33
2022-11-18T10:01:04.061Z,16.33
2022-11-18T10:03:33.701Z,15.52
2022-11-18T10:06:10.679Z,15.15
2022-11-18T10:08:52.837Z,14.73
2022-11-18T10:11:24.689Z,16.33
2022-11-18T10:14:17.329Z,15.75
2022-11-18T10:17:06.920Z,13.60
2022-11-18T10:19:55.753Z,12.60
2022-11-18T10:22:38.280Z,13.52
2022-11-18T10:25:15.836Z,12.98
2022-11-18T10:27:46.761Z,13.18
2022-11-18T10:30:25.886Z,14.23
2022-11-18T10:32:57.344Z,13.52
2022-11-18T10:35:44.907Z,14.02
2022-11-18T10:38:15.554Z,13.32
2022-11-18T10:41:17.980Z,15.02
2022-11-18T10:43:55.321Z,14.02
2022-11-18T10:46:31.381Z,12.88
2022-11-18T10:49:10.822Z,12.80
2022-11-18T10:51:46.757Z,12.98
2022-11-18T10:54:19.363Z,13.32
2022-11-18T10:57:16.291Z,13.02
2022-11-18T10:59:53.889Z,12.20
2022-11-18T11:02:33.023Z,11.88
2022-11-18T11:05:04.952Z,12.57
2022-11-18T11:07:36.299Z,13.07
2022-11-18T11:10:06.543Z,12.73
2022-11-18T11:12:40.451Z,12.27
2022-11-18T11:15:14.522Z,12.43
2022-11-18T11:18:21.032Z,11.95
2022-11-18T11:20:48.228Z,11.82
2022-11-18T11:23:23.512Z,11.95
2022-11-18T11:29:21.949Z,10.38
2022-11-18T11:32:16.853Z,10.57
2022-11-18T11:35:02.273Z,12.02
2022-11-18T11:37:55.613Z,12.32
2022-11-18T11:40:44.506Z,12.27
2022-11-18T11:43:37.797Z,12.38
2022-11-18T11:47:12.708Z,11.77
2022-11-18T11:49:52.301Z,11.57
2022-11-18T11:52:45.929Z,11.30
2022-11-18T11:55:27.382Z,11.77
2022-11-18T11:58:19.561Z,10.85
2022-11-18T12:01:10.338Z,12.10
2022-11-18T12:03:51.767Z,11.82
2022-11-18T12:06:19.899Z,13.60
2022-11-18T12:09:13.247Z,12.98
2022-11-18T12:12:39.804Z,13.73
2022-11-18T12:15:30.662Z,14.77
2022-11-18T12:18:26.340Z,12.75
2022-11-18T12:20:54.784Z,13.55
2022-11-18T12:23:26.717Z,12.40
2022-11-18T12:25:53.926Z,11.18
2022-11-18T12:28:25.259Z,9.63
2022-11-18T12:31:18.474Z,10.23
2022-11-18T12:34:00.258Z,9.80
2022-11-18T12:36:40.002Z,11.63
2022-11-18T12:39:25.700Z,12.20
2022-11-18T12:42:21.875Z,13.70
2022-11-18T12:44:51.758Z,12.95
2022-11-18T12:47:37.524Z,13.02
2022-11-18T12:50:14.790Z,13.02
2022-11-18T12:52:41.958Z,13.23
2022-11-18T12:55:31.948Z,13.68
2022-11-18T12:57:59.402Z,15.43
2022-11-18T13:00:32.230Z,16.70
2022-11-18T13:03:01.760Z,14.35
2022-11-18T13:05:32.661Z,14.18
2022-11-18T13:08:14.748Z,13.82
2022-11-18T13:11:37.247Z,14.80
2022-11-18T13:14:33.599Z,16.85
2022-11-18T13:17:21.856Z,15.25
2022-11-18T13:20:08.890Z,14.55
2022-11-18T13:23:11.587Z,15.32
2022-11-18T13:25:39.722Z,15.55
2022-11-18T13:28:47.210Z,15.93
2022-11-18T13:31:47.027Z,16.13
2022-11-18T13:34:20.412Z,18.40
2022-11-18T13:36:49.961Z,16.58
2022-11-18T13:39:28.994Z,17.55
2022-11-18T13:42:01.588Z,16.55
2022-11-18T13:44:37.661Z,15.05
2022-11-18T13:47:19.604Z,12.82
2022-11-18T13:50:11.612Z,13.27
2022-11-18T13:52:53.673Z,12.88
2022-11-18T13:55:26.856Z,12.57
2022-11-18T13:59:02.710Z,12.68
2022-11-18T14:01:27.745Z,13.02
2022-11-18T14:03:59.460Z,14.07
2022-11-18T14:06:39.977Z,12.77
2022-11-18T14:09:29.446Z,13.40
2022-11-18T14:12:29.389Z,15.38
2022-11-18T14:15:44.430Z,15.77
2022-11-18T14:18:21.255Z,16.58
2022-11-18T14:20:54.051Z,16.20
2022-11-18T14:23:36.409Z,14.68
2022-11-18T14:26:07.286Z,15.87
2022-11-18T14:28:37.285Z,17.20
2022-11-18T14:31:27.839Z,16.25
2022-11-18T14:34:27.203Z,18.10
2022-11-18T14:36:56.830Z,18.05
2022-11-18T14:39:31.527Z,19.63
2022-11-18T14:41:59.955Z,18.75
2022-11-18T14:44:28.550Z,18.30
2022-11-18T14:46:59.501Z,19.83
2022-11-18T14:49:28.124Z,17.95
2022-11-18T14:51:55.631Z,18.98
2022-11-18T14:54:27.258Z,17.90
2022-11-18T14:56:59.989Z,18.07
2022-11-18T14:59:27.843Z,16.20
2022-11-18T15:01:56.909Z,16.95
2022-11-18T15:04:25.205Z,17.58
2022-11-18T15:06:52.439Z,16.05
2022-11-18T15:09:19.526Z,18.08
2022-11-18T15:11:50.103Z,15.80
2022-11-18T15:14:17.476Z,15.73
2022-11-18T15:16:44.917Z,16.17
2022-11-18T15:19:15.211Z,15.80
2022-11-18T15:21:43.956Z,16.10
2022-11-18T15:24:11.452Z,15.55
2022-11-18T15:26:44.565Z,15.80
2022-11-18T15:31:50.615Z,15.02
2022-11-18T15:34:20.525Z,15.82
2022-11-18T15:36:48.724Z,15.68
2022-11-18T15:39:15.826Z,15.68
2022-11-18T15:41:43.175Z,16.38
2022-11-18T15:44:11.785Z,16.73
2022-11-18T15:46:39.501Z,14.63
2022-11-18T15:49:09.483Z,15.68
2022-11-18T15:51:37.620Z,16.20
2022-11-18T15:54:04.770Z,16.10
2022-11-18T15:56:33.137Z,16.00
2022-11-18T15:59:06.106Z,15.40
2022-11-18T16:01:36.426Z,14.40
2022-11-18T16:04:05.802Z,14.38
2022-11-18T16:06:33.262Z,15.13
2022-11-18T16:09:00.907Z,13.20
2022-11-18T16:11:48.527Z,14.77
2022-11-18T16:14:18.401Z,15.25
2022-11-18T16:16:47.356Z,14.32
2022-11-18T16:19:17.514Z,13.77
2022-11-18T16:21:47.227Z,13.68
2022-11-18T16:24:18.321Z,13.38
2022-11-18T16:26:45.986Z,12.98
2022-11-18T16:29:16.394Z,12.82
2022-11-18T16:31:47.016Z,13.00
2022-11-18T16:34:16.017Z,13.20
2022-11-18T16:36:45.402Z,13.43
2022-11-18T16:39:15.031Z,14.20
2022-11-18T16:41:43.603Z,14.68
2022-11-18T16:44:13.570Z,14.23
2022-11-18T16:46:43.184Z,13.75
2022-11-18T16:49:15.452Z,13.50
2022-11-18T16:51:44.870Z,15.18
2022-11-18T16:54:32.281Z,14.82
2022-11-18T16:57:00.018Z,16.05
2022-11-18T16:59:29.743Z,16.25
2022-11-18T17:01:59.008Z,17.02
2022-11-18T17:04:27.748Z,16.05
2022-11-18T17:06:55.760Z,15.68
2022-11-18T17:09:24.766Z,16.42
2022-11-18T17:11:54.109Z,15.50
2022-11-18T17:14:22.485Z,16.75
2022-11-18T17:16:50.390Z,16.48
2022-11-18T17:19:22.283Z,16.95
2022-11-18T17:21:51.098Z,18.43
2022-11-18T17:24:21.441Z,17.15
2022-11-18T17:26:49.649Z,18.63
2022-11-18T17:29:17.331Z,17.25
2022-11-18T17:31:45.239Z,17.77
2022-11-18T17:34:14.202Z,17.58
2022-11-18T17:36:41.981Z,17.35
2022-11-18T17:39:11.242Z,18.02
2022-11-18T17:41:57.125Z,17.63
2022-11-18T17:44:24.966Z,17.15
2022-11-18T17:46:54.264Z,17.20
2022-11-18T17:49:22.444Z,17.63
2022-11-18T17:51:53.308Z,18.38
2022-11-18T17:54:22.072Z,18.23
2022-11-18T17:56:52.608Z,18.30
2022-11-18T17:59:21.326Z,18.50
2022-11-18T18:01:59.245Z,17.52
2022-11-18T18:04:27.320Z,19.20
2022-11-18T18:06:55.297Z,19.40
2022-11-18T18:09:30.627Z,18.85
2022-11-18T18:11:59.723Z,20.77
2022-11-18T18:14:28.163Z,18.85
2022-11-18T18:16:55.609Z,21.70
2022-11-18T18:19:23.916Z,25.88
2022-11-18T18:21:51.319Z,28.00
2022-11-18T18:24:21.257Z,28.60
2022-11-18T18:26:49.278Z,28.35
2022-11-18T18:29:16.495Z,29.42
2022-11-18T18:31:43.895Z,27.25
2022-11-18T18:34:11.145Z,24.63
2022-11-18T18:36:38.287Z,25.73
2022-11-18T18:39:05.652Z,27.65
2022-11-18T18:41:32.861Z,26.17
2022-11-18T18:44:00.620Z,25.10
2022-11-18T18:46:34.746Z,20.42
2022-11-18T18:49:04.188Z,20.13
2022-11-18T18:51:50.728Z,18.17
2022-11-18T18:54:20.251Z,17.88
2022-11-18T18:56:47.758Z,18.38
2022-11-18T18:59:15.018Z,17.52
2022-11-18T19:01:42.346Z,17.38
2022-11-18T19:04:11.707Z,18.58
2022-11-18T19:09:26.945Z,18.00
2022-11-18T19:12:13.092Z,19.35
2022-11-18T19:14:40.759Z,20.77
2022-11-18T19:17:12.676Z,21.20
2022-11-18T19:20:02.520Z,16.80
2022-11-18T19:22:31.599Z,21.55
2022-11-18T19:24:59.759Z,22.67
2022-11-18T19:27:33.207Z,24.50
2022-11-18T19:30:00.865Z,24.85
2022-11-18T19:32:28.047Z,25.85
2022-11-18T19:34:55.404Z,25.92
2022-11-18T19:37:22.739Z,27.15
2022-11-18T19:39:50.113Z,28.15
2022-11-18T19:42:17.629Z,28.15
2022-11-18T19:44:44.847Z,28.83
2022-11-18T19:47:12.037Z,26.02
2022-11-18T19:49:39.478Z,28.85
2022-11-18T19:52:06.948Z,26.20
2022-11-18T19:54:34.652Z,26.15
2022-11-18T19:57:04.199Z,26.38
2022-11-18T19:59:31.755Z,25.77
2022-11-18T20:01:59.218Z,25.35
2022-11-18T20:04:26.462Z,24.77
2022-11-18T20:06:54.156Z,25.00
2022-11-18T20:09:21.753Z,25.42
2022-11-18T20:11:49.576Z,24.10
2022-11-18T20:14:17.372Z,25.02
2022-11-18T20:16:44.746Z,26.45
2022-11-18T20:19:17.485Z,24.67
2022-11-18T20:21:47.977Z,25.90
2022-11-18T20:24:17.750Z,26.20
2022-11-18T20:26:45.862Z,26.50
2022-11-18T20:29:13.917Z,28.73
2022-11-18T20:31:43.970Z,27.25
2022-11-18T20:34:15.156Z,28.48
2022-11-18T20:36:46.608Z,26.10
2022-11-18T20:39:23.366Z,27.80
2022-11-18T20:42:11.151Z,24.95
2022-11-18T20:44:42.755Z,21.63
2022-11-18T20:47:22.321Z,21.13
2022-11-18T20:49:49.486Z,20.20
2022-11-18T20:52:16.900Z,17.92
2022-11-18T20:54:50.450Z,15.57
2022-11-18T20:57:17.891Z,14.52
2022-11-18T20:59:45.266Z,14.57
2022-11-18T21:02:12.518Z,14.02
2022-11-18T21:04:39.696Z,13.93
2022-11-18T21:07:07.147Z,11.88
2022-11-18T21:09:37.609Z,12.43
2022-11-18T21:12:05.088Z,11.40
2022-11-18T21:14:32.314Z,11.82
2022-11-18T21:17:06.168Z,11.48
2022-11-18T21:19:35.779Z,11.20
2022-11-18T21:22:03.288Z,11.85
2022-11-18T21:24:32.421Z,10.57
2022-11-18T21:27:01.866Z,11.82
2022-11-18T21:29:30.992Z,10.18
2022-11-18T21:32:01.478Z,10.25
2022-11-18T21:34:29.629Z,10.77
2022-11-18T21:36:57.065Z,11.30
2022-11-18T21:39:25.127Z,10.45
2022-11-18T21:41:56.266Z,10.32
2022-11-18T21:44:25.798Z,11.80
2022-11-18T21:46:56.037Z,9.98
2022-11-18T21:49:23.847Z,9.73
2022-11-18T21:51:56.809Z,9.98
2022-11-18T21:54:26.488Z,9.07
2022-11-18T21:56:53.913Z,9.10
2022-11-18T21:59:22.984Z,8.63
2022-11-18T22:01:50.283Z,8.32
2022-11-18T22:04:36.489Z,7.40
2022-11-18T22:07:04.066Z,7.57
2022-11-18T22:09:36.539Z,7.78
2022-11-18T22:12:06.857Z,7.40
2022-11-18T22:14:34.773Z,7.40
2022-11-18T22:17:02.382Z,6.70
2022-11-18T22:19:30.167Z,6.97
2022-11-18T22:21:57.501Z,6.43
2022-11-18T22:24:24.844Z,7.05
2022-11-18T22:26:52.834Z,5.75
2022-11-18T22:29:26.292Z,6.10
2022-11-18T22:31:54.453Z,5.90
2022-11-18T22:34:21.801Z,5.75
2022-11-18T22:36:51.823Z,5.50
2022-11-18T22:39:19.606Z,5.68
2022-11-18T22:42:22.029Z,4.80
2022-11-18T22:44:51.092Z,5.35
2022-11-18T22:47:18.234Z,5.10
2022-11-18T22:49:45.423Z,4.82
2022-11-18T22:52:12.571Z,5.18
2022-11-18T22:54:40.505Z,4.93
2022-11-18T22:57:08.928Z,5.20
2022-11-18T22:59:36.555Z,5.00
2022-11-18T23:02:04.243Z,4.45
2022-11-18T23:04:38.709Z,4.95
2022-11-18T23:07:11.382Z,4.78
2022-11-18T23:09:38.539Z,4.72
2022-11-18T23:12:24.581Z,4.00
2022-11-18T23:14:51.788Z,4.53
2022-11-18T23:17:28.272Z,4.35
2022-11-18T23:19:55.708Z,3.95
2022-11-18T23:22:22.875Z,3.83
2022-11-18T23:24:50.258Z,3.58
2022-11-18T23:27:17.445Z,4.10
2022-11-18T23:29:44.927Z,4.07
2022-11-18T23:32:12.139Z,3.70
2022-11-18T23:34:39.611Z,3.45
2022-11-18T23:37:06.702Z,2.97
2022-11-18T23:39:34.728Z,3.65
2022-11-18T23:42:01.946Z,3.40
2022-11-18T23:44:47.284Z,3.47
2022-11-18T23:47:14.763Z,3.10
2022-11-18T23:49:42.129Z,3.53
2022-11-18T23:52:09.265Z,3.35
2022-11-18T23:54:36.785Z,3.33
2022-11-18T23:57:07.556Z,3.70
2022-11-18T23:59:34.870Z,3.30
